Terminal Aerodrome Forecast
Issued by NWS

Home | Current Version | Previous Version | Text Only | Print | Product List | Glossary On
Versions: 1 2 3 4 5 6 7 8 9 10 11 12 13 14 15 16 17 18
000
FTUS41 KPBZ 270531
TAFAGC
TAF
KAGC 270531Z 2706/2806 18005KT 5SM -RA BKN040
      TEMPO 2706/2707 2SM RA BR OVC020
     FM271000 VRB04KT 3SM BR BKN020
     FM271600 21011KT P6SM BKN050
     FM280500 24006KT 6SM -RA OVC040=

USA.gov is the U.S. government's official web portal to all federal, state and local government web resources and services.